Mount Oliver, Pennsylvania
Current Conditions -  °F | °C
As of 6:53 PM on Saturday 25 Oct 2014 (Local Time) from KAGC Reporting Station
Clear Clear  
Wind Chill: 17°   Ceiling: Unl
Heat Index: 17°   Visibility: 10mi
Dew Point:   Wind: 14mph
Humidity: 58%   Direction: 230°SW
Pressure: 29.75"   Gusts: 23mph
Location:  40.4064°N, 79.9829°W
Report Text: KAGC 252253Z 23012G20KT 10SM CLR 17/09 A2975 RMK AO2 SLP078 T01720089
Loading
Personal Weather Stations






























Interactive Weather Map
Tropical Storm Tracking
New forecast layout! Learn more

10-Day Weather Forecast

Advertisements
Track Severe Weather on mobile